METAR Data
IDs: Format: Raw Decoded Include TAF

Data at: 0623 UTC 19 Aug 2019

KSGT 190556Z AUTO 20005KT 10SM CLR 24/23 A2997 RMK AO2 SLP146 T02390228 10278 20239 403280239 50003
KSGT 190456Z AUTO 12003KT 10SM CLR 25/23 A2998 RMK AO2 SLP150 T02500228
KSGT 190356Z AUTO 14004KT 10SM CLR 25/23 A2997 RMK AO2 SLP148 T02500233
KSGT 190256Z AUTO 19005KT 10SM CLR 26/23 A2996 RMK AO2 SLP143 T02560228 51025
KSGT 190156Z AUTO 14005KT 10SM CLR 27/23 A2995 RMK AO2 SLP142 T02670233
KSGT 190056Z AUTO 15007KT 10SM CLR 27/24 A2992 RMK AO2 SLP131 T02720239
KSGT 182356Z AUTO 15012KT 10SM CLR 27/22 A2988 RMK AO2 RAE04 SLP117 P0000 60000 T02720222 10328 20256 56012
KSGT 182256Z AUTO 22003KT 8SM -RA FEW060 BKN075 BKN100 26/22 A2989 RMK AO2 RAB54 SLP121 P0000 T02610222
KSGT 182156Z AUTO 25008KT 10SM CLR 27/21 A2990 RMK AO2 LTG DSNT SW AND W SLP124 T02670206
KSGT 182056Z AUTO 24007KT 10SM BKN085 32/24 A2992 RMK AO2 LTG DSNT W-N SLP129 T03170239 56010
KSGT 181956Z AUTO 24009KT 10SM FEW070 32/24 A2992 RMK AO2 LTG DSNT W TSE07 SLP131 T03170239
KSGT 181913Z AUTO 25010KT 10SM CLR 29/24 A2994 RMK AO2 TSE07
KSGT 181856Z AUTO 24010KT 10SM VCTS FEW033 31/24 A2994 RMK AO2 TSB44 SLP137 T03060244
KSGT 181756Z AUTO 21009KT 10SM BKN035 33/25 A2995 RMK AO2 LTG DSNT SW AND W SLP139 T03280250 10328 20244 58004
KSGT 181656Z AUTO 23009KT 10SM SCT025 SCT035 32/26 A2997 RMK AO2 SLP145 T03220256
KSGT 181556Z AUTO 23009KT 10SM CLR 31/25 A2997 RMK AO2 SLP147 T03060250
KSGT 181456Z AUTO 21007KT 10SM CLR 29/25 A2996 RMK AO2 SLP143 T02940250 51010
KSGT 181356Z AUTO 20005KT 10SM CLR 27/24 A2995 RMK AO2 SLP141 T02720244
KSGT 181256Z AUTO 18005KT 10SM CLR 26/23 A2995 RMK AO2 SLP139 T02610233
KSGT 181156Z AUTO 17005KT 10SM CLR 24/23 A2993 RMK AO2 SLP133 T02440228 10261 20239 52008
KSGT 181056Z AUTO 18007KT 10SM CLR 25/23 A2992 RMK AO2 SLP129 T02500228
KSGT 180956Z AUTO 21004KT 10SM CLR 24/22 A2992 RMK AO2 SLP128 T02390222
KSGT 180856Z AUTO 20007KT 10SM CLR 24/22 A2990 RMK AO2 SLP124 T02390222 58004
KSGT 180756Z AUTO 18005KT 10SM CLR 26/22 A2991 RMK AO2 SLP125 T02560222
KSGT 180656Z AUTO 17006KT 10SM CLR 25/23 A2991 RMK AO2 SLP128 T02500228
KSGT 180556Z AUTO 16008KT 10SM CLR 26/23 A2992 RMK AO2 SLP128 T02610228 10322 20256 403560228 50002
KSGT 180456Z AUTO 16007KT 10SM CLR 27/23 A2992 RMK AO2 SLP131 T02720228
KSGT 180356Z AUTO 14007KT 10SM CLR 27/23 A2992 RMK AO2 SLP130 T02720233
KSGT 180256Z AUTO 14006KT 10SM CLR 28/24 A2991 RMK AO2 SLP126 T02830239 53008
KSGT 180156Z AUTO 12005KT 10SM CLR 28/24 A2990 RMK AO2 SLP124 T02830244
KSGT 180056Z AUTO 13006KT 10SM CLR 29/25 A2989 RMK AO2 SLP120 T02940250
KSGT 172356Z AUTO 12006KT 9SM CLR 33/25 A2988 RMK AO2 SLP118 T03280250 10356 20328 58006
KSGT 172256Z AUTO 14008KT 10SM CLR 34/23 A2989 RMK AO2 SLP121 T03440228
KSGT 172156Z AUTO 13008KT 10SM CLR 35/22 A2990 RMK AO2 SLP123 T03500217
KSGT 172056Z AUTO 13008KT 10SM CLR 35/22 A2990 RMK AO2 SLP124 T03500217 56021
KSGT 171956Z AUTO 11007KT 10SM FEW049 34/24 A2993 RMK AO2 SLP132 T03390239
KSGT 171856Z AUTO 22006KT 10SM CLR 34/23 A2994 RMK AO2 SLP137 T03390228